Airfield :







YOU CAN JOIN US ON...

 
LOGIN :

Register | Disclaimer

   EN    FR    IT 

 









Legend :    VFR   Marginal VFR   IFR   Intensive IFR   Very Intensive IFR
Visi :
Ceiling :
>= 8 km
>= 3000ft
5 to 8 km
1000 to 3000 ft
1500m to 5 km
500 to 1000 ft
800 to 1500m
200 to 500 ft
< 800m
< 200 ft
Symbols :   Thunderstorms  Fog  Heavy snow  Heavy precipitations  Wind > 20 kt






- Airport Elevation : 988 ft


KFVE - Northern Aroostook Regional

CURRENT METAR :
  • 301853Z AUTO 06006KT 10SM BKN050 OVC060 02/M07 A3014 RMK AO2 SLP215 T00171067

EXPIRED METARs :
  • 301753Z AUTO 10009G17KT 10SM BKN037 OVC045 01/M07 A3016 RMK AO2 SNE46 SLP224 P0000 60000 T00061072 10006 21022 58007
  • 301737Z AUTO 11003KT 5SM -SN OVC033 M01/M05 A3016 RMK AO2 P0000 T10111050
  • 301706Z AUTO VRB04KT 2SM -SN BKN031 OVC038 M02/M04 A3017 RMK AO2 P0000 T10171044
  • 301653Z AUTO 08010G15KT 1 3/4SM -SN BKN026 OVC034 M02/M05 A3017 RMK AO2 SLP228 P0000 T10171050
  • 301640Z AUTO 06007KT 1 1/2SM -SN BKN022 BKN028 OVC034 M02/M06 A3018 RMK AO2 P0000 T10171056
  • 301627Z AUTO 10009KT 2SM -SN BKN021 OVC028 M02/M06 A3018 RMK AO2 P0000 T10171061
  • 301613Z AUTO 09009G16KT 1 1/2SM -SN BKN023 OVC030 M02/M06 A3018 RMK AO2 P0000 T10171056

TAF KFVE
Valid from the 30 at 15:00 until the 31 at 12:00 UTC


301521Z 3015/3112 09010G18KT P6SM -SN SCT015 OVC035
TEMPO 3015/3019 3SM -SN BR OVC015
FM302000 08009KT P6SM VCSH OVC025
FM310000 06008KT P6SM OVC050
FM311000 01006KT P6SM BKN070



MET'MAP, your aeronautical weather chart ! - Copyright ORBIFLY December 2007 - Disclaimer

ORBIFLY MET'MAP TEAM :

Programming & Development : Alexandra Zaïnal
Concept & original design : Baudouin d'Aumeries
Assistance for programming : Marc-Olivier Méhu
Technical & hardware support : Manuel Goepfert

Contact : metmap@orbifly.com




SOURCES & CREDITS :

   NOAA